Bunker, Washington
Current Conditions -  °F | °C
As of 7:15 AM on Thursday 23 Oct 2014 (Local Time) from KCLS Reporting Station
Light Rain Light Rain  
Wind Chill: 11°   Ceiling: 4000
Heat Index: 11°   Visibility: 8mi
Dew Point: 11°   Wind: 0mph
Humidity: 100%   Direction: NA
Pressure: 29.76"   Gusts: NA
Location:  46.6561°N, 122.993°W
Report Text: KCLS 231415Z AUTO 00000KT 8SM -RA SCT031 BKN040 OVC070 11/11 A2976 RMK AO2
Loading
Personal Weather Stations






























Interactive Weather Map
Tropical Storm Tracking
New forecast layout! Learn more

10-Day Weather Forecast

Advertisements
Track Severe Weather on mobile